sensor_id;sensor_type;location;lat;lon;timestamp;pressure;altitude;pressure_sealevel;temperature;humidity
39891;BME280;25564;53.312;9.790;2023-05-02T00:00:46;100851.19;;;11.04;67.43
39891;BME280;25564;53.312;9.790;2023-05-02T00:03:18;100851.19;;;11.04;67.89
39891;BME280;25564;53.312;9.790;2023-05-02T00:05:49;100855.66;;;11.01;68.04
39891;BME280;25564;53.312;9.790;2023-05-02T00:08:21;100844.25;;;10.96;68.02
39891;BME280;25564;53.312;9.790;2023-05-02T00:10:52;100857.41;;;11.03;68.56
39891;BME280;25564;53.312;9.790;2023-05-02T00:13:23;100859.09;;;11.07;69.12
39891;BME280;25564;53.312;9.790;2023-05-02T00:15:55;100847.63;;;11.05;69.59
39891;BME280;25564;53.312;9.790;2023-05-02T00:18:30;100859.88;;;11.14;69.23
39891;BME280;25564;53.312;9.790;2023-05-02T00:21:03;100819.50;;;10.94;70.07
39891;BME280;25564;53.312;9.790;2023-05-02T00:23:34;100861.50;;;11.21;70.01
39891;BME280;25564;53.312;9.790;2023-05-02T00:26:09;100859.63;;;11.28;70.50
39891;BME280;25564;53.312;9.790;2023-05-02T00:28:40;100863.97;;;11.32;70.33
39891;BME280;25564;53.312;9.790;2023-05-02T00:31:11;100871.88;;;11.35;70.55
39891;BME280;25564;53.312;9.790;2023-05-02T00:33:43;100860.38;;;11.36;70.99
39891;BME280;25564;53.312;9.790;2023-05-02T00:36:18;100844.50;;;11.31;71.62
39891;BME280;25564;53.312;9.790;2023-05-02T00:38:49;100866.38;;;11.44;71.41
39891;BME280;25564;53.312;9.790;2023-05-02T00:41:21;100861.94;;;11.44;71.19
39891;BME280;25564;53.312;9.790;2023-05-02T00:43:52;100861.94;;;11.44;71.93
39891;BME280;25564;53.312;9.790;2023-05-02T00:46:23;100857.38;;;11.51;71.99
39891;BME280;25564;53.312;9.790;2023-05-02T00:48:55;100857.34;;;11.53;72.29
39891;BME280;25564;53.312;9.790;2023-05-02T00:51:26;100861.75;;;11.55;72.12
39891;BME280;25564;53.312;9.790;2023-05-02T00:53:59;100846.69;;;11.54;72.56
39891;BME280;25564;53.312;9.790;2023-05-02T00:56:31;100851.09;;;11.55;72.52
39891;BME280;25564;53.312;9.790;2023-05-02T00:59:07;100855.38;;;11.64;72.72
39891;BME280;25564;53.312;9.790;2023-05-02T01:07:34;100849.09;;;11.68;73.07
39891;BME280;25564;53.312;9.790;2023-05-02T01:10:20;100846.50;;;11.63;73.28
39891;BME280;25564;53.312;9.790;2023-05-02T01:13:08;100846.47;;;11.66;73.74
39891;BME280;25564;53.312;9.790;2023-05-02T01:15:41;100854.41;;;11.68;73.38
39891;BME280;25564;53.312;9.790;2023-05-02T01:18:17;100831.56;;;11.58;73.74
39891;BME280;25564;53.312;9.790;2023-05-02T01:20:59;100856.00;;;11.76;73.81
39891;BME280;25564;53.312;9.790;2023-05-02T01:23:59;100855.06;;;11.81;74.30
39891;BME280;25564;53.312;9.790;2023-05-02T01:27:11;100854.09;;;11.85;74.25
39891;BME280;25564;53.312;9.790;2023-05-02T01:29:46;100848.72;;;11.88;74.27
39891;BME280;25564;53.312;9.790;2023-05-02T01:32:20;100850.41;;;11.92;73.86
39891;BME280;25564;53.312;9.790;2023-05-02T01:34:55;100855.66;;;11.95;74.40
39891;BME280;25564;53.312;9.790;2023-05-02T01:37:28;100858.34;;;11.93;74.33
39891;BME280;25564;53.312;9.790;2023-05-02T01:40:01;100853.19;;;11.86;74.25
39891;BME280;25564;53.312;9.790;2023-05-02T01:42:36;100854.81;;;11.93;74.36
39891;BME280;25564;53.312;9.790;2023-05-02T01:45:09;100860.09;;;11.94;74.48
39891;BME280;25564;53.312;9.790;2023-05-02T01:47:43;100859.34;;;11.88;75.17
39891;BME280;25564;53.312;9.790;2023-05-02T01:50:17;100840.94;;;11.78;75.33
39891;BME280;25564;53.312;9.790;2023-05-02T01:52:52;100862.97;;;11.84;75.41
39891;BME280;25564;53.312;9.790;2023-05-02T01:55:25;100843.78;;;11.66;75.38
39891;BME280;25564;53.312;9.790;2023-05-02T01:57:58;100857.06;;;11.68;76.33
39891;BME280;25564;53.312;9.790;2023-05-02T02:00:31;100858.00;;;11.65;76.20
39891;BME280;25564;53.312;9.790;2023-05-02T02:03:05;100876.53;;;11.68;76.61
39891;BME280;25564;53.312;9.790;2023-05-02T02:05:38;100872.31;;;11.58;77.30
39891;BME280;25564;53.312;9.790;2023-05-02T02:08:10;100884.91;;;11.48;77.33
39891;BME280;25564;53.312;9.790;2023-05-02T02:10:44;100870.19;;;11.31;77.86
39891;BME280;25564;53.312;9.790;2023-05-02T02:13:18;100864.97;;;11.26;78.04
39891;BME280;25564;53.312;9.790;2023-05-02T02:15:58;100871.16;;;11.27;78.17
39891;BME280;25564;53.312;9.790;2023-05-02T02:18:31;100886.94;;;11.36;77.88
39891;BME280;25564;53.312;9.790;2023-05-02T02:21:06;100892.19;;;11.39;77.85
39891;BME280;25564;53.312;9.790;2023-05-02T02:23:42;100872.81;;;11.34;77.82
39891;BME280;25564;53.312;9.790;2023-05-02T02:26:14;100882.38;;;11.42;77.91
39891;BME280;25564;53.312;9.790;2023-05-02T02:28:47;100899.13;;;11.44;77.83
39891;BME280;25564;53.312;9.790;2023-05-02T02:31:19;100888.56;;;11.43;77.90
39891;BME280;25564;53.312;9.790;2023-05-02T02:33:50;100896.47;;;11.46;78.14
39891;BME280;25564;53.312;9.790;2023-05-02T02:42:24;100904.38;;;11.49;78.37
39891;BME280;25564;53.312;9.790;2023-05-02T02:48:34;100908.06;;;11.42;78.35
39891;BME280;25564;53.312;9.790;2023-05-02T02:51:13;100914.38;;;11.36;78.84
39891;BME280;25564;53.312;9.790;2023-05-02T02:53:52;100912.72;;;11.29;78.52
39891;BME280;25564;53.312;9.790;2023-05-02T02:56:37;100880.50;;;10.98;79.14
39891;BME280;25564;53.312;9.790;2023-05-02T02:59:22;100928.00;;;11.17;79.48
39891;BME280;25564;53.312;9.790;2023-05-02T03:02:07;100919.44;;;10.99;80.30
39891;BME280;25564;53.312;9.790;2023-05-02T03:04:40;100946.03;;;10.96;80.19
39891;BME280;25564;53.312;9.790;2023-05-02T03:07:13;100946.44;;;10.69;80.86
39891;BME280;25564;53.312;9.790;2023-05-02T03:09:46;100959.16;;;10.45;80.92
39891;BME280;25564;53.312;9.790;2023-05-02T03:12:17;100975.34;;;10.24;81.06
39891;BME280;25564;53.312;9.790;2023-05-02T03:14:49;100980.81;;;10.09;81.36
39891;BME280;25564;53.312;9.790;2023-05-02T03:17:20;101004.88;;;9.91;81.33
39891;BME280;25564;53.312;9.790;2023-05-02T03:19:54;100997.13;;;9.69;82.72
39891;BME280;25564;53.312;9.790;2023-05-02T03:22:25;101020.31;;;9.44;81.98
39891;BME280;25564;53.312;9.790;2023-05-02T03:24:56;101031.06;;;9.25;82.00
39891;BME280;25564;53.312;9.790;2023-05-02T03:27:28;101024.16;;;9.05;83.32
39891;BME280;25564;53.312;9.790;2023-05-02T03:29:59;101033.94;;;8.93;82.68
39891;BME280;25564;53.312;9.790;2023-05-02T03:32:31;101037.50;;;8.82;82.62
39891;BME280;25564;53.312;9.790;2023-05-02T03:35:02;101038.50;;;8.62;82.60
39891;BME280;25564;53.312;9.790;2023-05-02T03:37:34;101044.66;;;8.65;83.52
39891;BME280;25564;53.312;9.790;2023-05-02T03:40:06;101049.97;;;8.55;82.99
39891;BME280;25564;53.312;9.790;2023-05-02T03:42:37;101057.03;;;8.54;82.97
39891;BME280;25564;53.312;9.790;2023-05-02T03:45:11;101062.34;;;8.49;82.79
39891;BME280;25564;53.312;9.790;2023-05-02T03:47:42;101072.06;;;8.43;83.31
39891;BME280;25564;53.312;9.790;2023-05-02T03:50:13;101080.00;;;8.38;82.81
39891;BME280;25564;53.312;9.790;2023-05-02T03:52:45;101072.06;;;8.32;83.03
39891;BME280;25564;53.312;9.790;2023-05-02T03:55:17;101078.28;;;8.25;83.48
39891;BME280;25564;53.312;9.790;2023-05-02T03:57:48;101081.81;;;8.13;83.13
39891;BME280;25564;53.312;9.790;2023-05-02T04:00:20;101087.13;;;8.03;83.58
39891;BME280;25564;53.312;9.790;2023-05-02T04:02:51;101081.84;;;7.91;83.67
39891;BME280;25564;53.312;9.790;2023-05-02T04:05:23;101070.41;;;7.70;83.47
39891;BME280;25564;53.312;9.790;2023-05-02T04:07:55;101093.31;;;7.82;83.36
39891;BME280;25564;53.312;9.790;2023-05-02T04:10:27;101101.22;;;7.74;83.59
39891;BME280;25564;53.312;9.790;2023-05-02T04:12:58;101107.41;;;7.76;83.26
39891;BME280;25564;53.312;9.790;2023-05-02T04:15:32;101100.34;;;7.71;83.16
39891;BME280;25564;53.312;9.790;2023-05-02T04:18:03;101122.38;;;7.74;83.30
39891;BME280;25564;53.312;9.790;2023-05-02T04:20:35;101126.78;;;7.75;82.94
39891;BME280;25564;53.312;9.790;2023-05-02T04:23:06;101135.56;;;7.77;82.76
39891;BME280;25564;53.312;9.790;2023-05-02T04:25:38;101136.47;;;7.81;82.96
39891;BME280;25564;53.312;9.790;2023-05-02T04:28:09;101148.78;;;7.82;82.64
39891;BME280;25564;53.312;9.790;2023-05-02T04:30:40;101152.31;;;7.85;82.63
39891;BME280;25564;53.312;9.790;2023-05-02T04:33:12;101144.38;;;7.82;82.44
39891;BME280;25564;53.312;9.790;2023-05-02T04:35:43;101135.59;;;7.85;82.31
39891;BME280;25564;53.312;9.790;2023-05-02T04:38:15;101160.25;;;7.92;82.18
39891;BME280;25564;53.312;9.790;2023-05-02T04:40:46;101174.34;;;7.98;82.14
39891;BME280;25564;53.312;9.790;2023-05-02T04:43:17;101155.84;;;7.92;81.93
39891;BME280;25564;53.312;9.790;2023-05-02T04:45:49;101176.09;;;8.04;81.95
39891;BME280;25564;53.312;9.790;2023-05-02T04:48:20;101178.75;;;8.08;81.71
39891;BME280;25564;53.312;9.790;2023-05-02T04:50:52;101181.38;;;8.11;81.99
39891;BME280;25564;53.312;9.790;2023-05-02T04:53:23;101176.09;;;8.13;81.59
39891;BME280;25564;53.312;9.790;2023-05-02T04:55:55;101169.06;;;8.00;81.35
39891;BME280;25564;53.312;9.790;2023-05-02T04:58:27;101196.38;;;8.14;81.20
39891;BME280;25564;53.312;9.790;2023-05-02T05:00:58;101169.94;;;8.06;81.69
39891;BME280;25564;53.312;9.790;2023-05-02T05:03:29;101200.78;;;8.24;81.30
39891;BME280;25564;53.312;9.790;2023-05-02T05:06:01;101206.94;;;8.34;81.49
39891;BME280;25564;53.312;9.790;2023-05-02T05:08:32;101208.72;;;8.36;81.22
39891;BME280;25564;53.312;9.790;2023-05-02T05:11:04;101215.75;;;8.42;81.06
39891;BME280;25564;53.312;9.790;2023-05-02T05:13:35;101212.22;;;8.52;81.02
39891;BME280;25564;53.312;9.790;2023-05-02T05:16:07;101219.25;;;8.61;81.01
39891;BME280;25564;53.312;9.790;2023-05-02T05:18:39;101224.53;;;8.67;80.98
39891;BME280;25564;53.312;9.790;2023-05-02T05:21:11;101224.56;;;8.65;80.66
39891;BME280;25564;53.312;9.790;2023-05-02T05:23:42;101234.25;;;8.65;80.51
39891;BME280;25564;53.312;9.790;2023-05-02T05:26:16;101237.78;;;8.70;80.86
39891;BME280;25564;53.312;9.790;2023-05-02T05:28:47;101243.94;;;8.70;80.66
39891;BME280;25564;53.312;9.790;2023-05-02T05:31:20;101250.09;;;8.77;80.40
39891;BME280;25564;53.312;9.790;2023-05-02T05:33:53;101244.81;;;8.77;80.62
39891;BME280;25564;53.312;9.790;2023-05-02T05:36:24;101245.69;;;8.79;80.45
39891;BME280;25564;53.312;9.790;2023-05-02T05:38:56;101258.03;;;8.81;80.71
39891;BME280;25564;53.312;9.790;2023-05-02T05:41:28;101251.88;;;8.82;80.66
39891;BME280;25564;53.312;9.790;2023-05-02T05:43:59;101246.59;;;8.75;79.86
39891;BME280;25564;53.312;9.790;2023-05-02T05:46:30;101256.28;;;8.71;79.11
39891;BME280;25564;53.312;9.790;2023-05-02T05:49:02;101273.94;;;8.75;79.36
39891;BME280;25564;53.312;9.790;2023-05-02T05:51:34;101294.22;;;8.75;79.93
39891;BME280;25564;53.312;9.790;2023-05-02T05:54:05;101297.75;;;8.69;79.06
39891;BME280;25564;53.312;9.790;2023-05-02T05:56:37;101303.91;;;8.62;79.11
39891;BME280;25564;53.312;9.790;2023-05-02T05:59:08;101308.31;;;8.54;78.77
39891;BME280;25564;53.312;9.790;2023-05-02T06:01:40;101309.19;;;8.44;78.87
39891;BME280;25564;53.312;9.790;2023-05-02T06:04:11;101311.84;;;8.39;78.47
39891;BME280;25564;53.312;9.790;2023-05-02T06:06:43;101318.88;;;8.34;78.93
39891;BME280;25564;53.312;9.790;2023-05-02T06:09:14;101309.19;;;8.21;78.08
39891;BME280;25564;53.312;9.790;2023-05-02T06:11:46;101330.31;;;8.23;78.34
39891;BME280;25564;53.312;9.790;2023-05-02T06:14:18;101328.56;;;8.20;78.06
39891;BME280;25564;53.312;9.790;2023-05-02T06:16:49;101309.16;;;8.07;78.39
39891;BME280;25564;53.312;9.790;2023-05-02T06:19:21;101330.31;;;8.16;77.62
39891;BME280;25564;53.312;9.790;2023-05-02T06:21:52;101336.50;;;8.18;78.22
39891;BME280;25564;53.312;9.790;2023-05-02T06:24:24;101342.66;;;8.19;78.08
39891;BME280;25564;53.312;9.790;2023-05-02T06:26:55;101349.69;;;8.17;77.38
39891;BME280;25564;53.312;9.790;2023-05-02T06:29:27;101332.06;;;8.05;77.50
39891;BME280;25564;53.312;9.790;2023-05-02T06:31:58;101366.47;;;8.22;77.44
39891;BME280;25564;53.312;9.790;2023-05-02T06:34:33;101335.59;;;8.13;77.84
39891;BME280;25564;53.312;9.790;2023-05-02T06:37:04;101366.47;;;8.31;77.32
39891;BME280;25564;53.312;9.790;2023-05-02T06:39:36;101373.56;;;8.38;77.54
39891;BME280;25564;53.312;9.790;2023-05-02T06:42:08;101377.09;;;8.49;77.28
39891;BME280;25564;53.312;9.790;2023-05-02T06:44:39;101380.63;;;8.55;77.31
39891;BME280;25564;53.312;9.790;2023-05-02T06:47:10;101391.22;;;8.61;77.30
39891;BME280;25564;53.312;9.790;2023-05-02T06:49:42;101389.47;;;8.60;77.10
39891;BME280;25564;53.312;9.790;2023-05-02T06:52:13;101390.31;;;8.51;75.94
39891;BME280;25564;53.312;9.790;2023-05-02T06:54:45;101407.09;;;8.64;76.10
39891;BME280;25564;53.312;9.790;2023-05-02T06:57:16;101396.53;;;8.67;76.20
39891;BME280;25564;53.312;9.790;2023-05-02T06:59:48;101409.75;;;8.74;76.31
39891;BME280;25564;53.312;9.790;2023-05-02T07:02:19;101412.41;;;8.79;75.29
39891;BME280;25564;53.312;9.790;2023-05-02T07:04:51;101416.81;;;8.80;75.44
39891;BME280;25564;53.312;9.790;2023-05-02T07:07:22;101418.59;;;8.82;75.48
39891;BME280;25564;53.312;9.790;2023-05-02T07:09:53;101430.94;;;8.88;75.01
39891;BME280;25564;53.312;9.790;2023-05-02T07:12:25;101408.88;;;8.80;74.90
39891;BME280;25564;53.312;9.790;2023-05-02T07:14:56;101430.06;;;9.01;74.96
39891;BME280;25564;53.312;9.790;2023-05-02T07:17:28;101422.13;;;8.94;74.39
39891;BME280;25564;53.312;9.790;2023-05-02T07:19:59;101434.50;;;9.02;73.78
39891;BME280;25564;53.312;9.790;2023-05-02T07:22:31;101429.19;;;8.92;73.12
39891;BME280;25564;53.312;9.790;2023-05-02T07:25:03;101437.13;;;9.02;72.77
39891;BME280;25564;53.312;9.790;2023-05-02T07:27:34;101430.06;;;8.94;73.13
39891;BME280;25564;53.312;9.790;2023-05-02T07:30:06;101410.66;;;8.87;73.54
39891;BME280;25564;53.312;9.790;2023-05-02T07:32:37;101444.19;;;9.06;73.06
39891;BME280;25564;53.312;9.790;2023-05-02T07:35:09;101454.78;;;9.02;73.09
39891;BME280;25564;53.312;9.790;2023-05-02T07:37:40;101453.03;;;9.01;73.19
39891;BME280;25564;53.312;9.790;2023-05-02T07:40:12;101458.31;;;9.05;73.22
39891;BME280;25564;53.312;9.790;2023-05-02T07:42:43;101463.63;;;9.11;72.20
39891;BME280;25564;53.312;9.790;2023-05-02T07:45:15;101460.97;;;9.14;72.92
39891;BME280;25564;53.312;9.790;2023-05-02T07:47:46;101467.16;;;9.18;71.67
39891;BME280;25564;53.312;9.790;2023-05-02T07:50:17;101465.38;;;9.22;72.47
39891;BME280;25564;53.312;9.790;2023-05-02T07:52:49;101449.50;;;9.18;71.07
39891;BME280;25564;53.312;9.790;2023-05-02T07:55:21;101451.25;;;9.24;71.06
39891;BME280;25564;53.312;9.790;2023-05-02T07:57:52;101449.50;;;9.29;71.39
39891;BME280;25564;53.312;9.790;2023-05-02T08:00:24;101482.09;;;9.62;71.19
39891;BME280;25564;53.312;9.790;2023-05-02T08:02:55;101478.53;;;9.79;70.87
39891;BME280;25564;53.312;9.790;2023-05-02T08:05:27;101486.50;;;9.76;69.65
39891;BME280;25564;53.312;9.790;2023-05-02T08:07:59;101491.81;;;9.73;69.71
39891;BME280;25564;53.312;9.790;2023-05-02T08:10:32;101502.41;;;9.67;69.44
39891;BME280;25564;53.312;9.790;2023-05-02T08:13:03;101494.47;;;9.61;68.45
39891;BME280;25564;53.312;9.790;2023-05-02T08:15:34;101486.50;;;9.64;69.59
39891;BME280;25564;53.312;9.790;2023-05-02T08:18:06;101501.50;;;9.87;69.79
39891;BME280;25564;53.312;9.790;2023-05-02T08:20:37;101484.72;;;9.88;69.65
39891;BME280;25564;53.312;9.790;2023-05-02T08:23:09;101506.75;;;10.12;69.36
39891;BME280;25564;53.312;9.790;2023-05-02T08:25:40;101497.91;;;10.09;69.25
39891;BME280;25564;53.312;9.790;2023-05-02T08:28:12;101497.03;;;10.10;68.64
39891;BME280;25564;53.312;9.790;2023-05-02T08:30:43;101511.03;;;10.48;69.31
39891;BME280;25564;53.312;9.790;2023-05-02T08:33:15;101521.53;;;10.70;68.47
39891;BME280;25564;53.312;9.790;2023-05-02T08:35:47;101510.00;;;10.78;67.62
39891;BME280;25564;53.312;9.790;2023-05-02T08:38:19;101527.63;;;10.89;67.61
39891;BME280;25564;53.312;9.790;2023-05-02T08:40:50;101524.09;;;10.91;67.55
39891;BME280;25564;53.312;9.790;2023-05-02T08:43:21;101528.53;;;10.88;67.76
39891;BME280;25564;53.312;9.790;2023-05-02T08:45:57;101528.59;;;10.78;65.78
39891;BME280;25564;53.312;9.790;2023-05-02T08:48:30;101535.75;;;10.63;66.01
39891;BME280;25564;53.312;9.790;2023-05-02T08:51:03;101542.88;;;10.50;66.95
39891;BME280;25564;53.312;9.790;2023-05-02T08:53:36;101555.28;;;10.40;67.20
39891;BME280;25564;53.312;9.790;2023-05-02T08:56:09;101548.28;;;10.33;66.77
39891;BME280;25564;53.312;9.790;2023-05-02T08:58:40;101519.13;;;10.20;67.05
39891;BME280;25564;53.312;9.790;2023-05-02T09:01:14;101544.66;;;10.43;66.73
39891;BME280;25564;53.312;9.790;2023-05-02T09:03:46;101567.63;;;10.55;67.00
39891;BME280;25564;53.312;9.790;2023-05-02T09:06:19;101557.84;;;10.65;67.00
39891;BME280;25564;53.312;9.790;2023-05-02T09:08:51;101562.19;;;10.81;67.07
39891;BME280;25564;53.312;9.790;2023-05-02T09:11:23;101556.91;;;10.79;66.33
39891;BME280;25564;53.312;9.790;2023-05-02T09:13:54;101546.44;;;10.41;66.72
39891;BME280;25564;53.312;9.790;2023-05-02T09:16:26;101563.22;;;10.48;67.25
39891;BME280;25564;53.312;9.790;2023-05-02T09:18:58;101558.69;;;10.76;67.02
39891;BME280;25564;53.312;9.790;2023-05-02T09:21:39;101567.25;;;11.25;66.64
39891;BME280;25564;53.312;9.790;2023-05-02T09:24:16;101568.59;;;11.76;65.61
39891;BME280;25564;53.312;9.790;2023-05-02T09:27:02;101575.53;;;11.99;65.04
39891;BME280;25564;53.312;9.790;2023-05-02T09:29:34;101565.00;;;11.85;65.16
39891;BME280;25564;53.312;9.790;2023-05-02T09:32:06;101588.09;;;11.82;64.82
39891;BME280;25564;53.312;9.790;2023-05-02T09:34:38;101592.56;;;11.72;64.75
39891;BME280;25564;53.312;9.790;2023-05-02T09:37:09;101588.25;;;11.57;64.43
39891;BME280;25564;53.312;9.790;2023-05-02T09:40:07;101590.06;;;11.52;63.78
39891;BME280;25564;53.312;9.790;2023-05-02T09:42:39;101602.53;;;11.45;65.01
39891;BME280;25564;53.312;9.790;2023-05-02T09:45:22;101604.34;;;11.42;64.89
39891;BME280;25564;53.312;9.790;2023-05-02T09:48:00;101598.16;;;11.38;64.48
39891;BME280;25564;53.312;9.790;2023-05-02T09:50:34;101598.94;;;11.51;65.41
39891;BME280;25564;53.312;9.790;2023-05-02T09:53:07;101593.47;;;11.69;64.79
39891;BME280;25564;53.312;9.790;2023-05-02T09:55:40;101598.84;;;11.63;63.76
39891;BME280;25564;53.312;9.790;2023-05-02T09:58:21;101589.97;;;11.64;64.16
39891;BME280;25564;53.312;9.790;2023-05-02T10:00:53;101597.88;;;11.78;64.36
39891;BME280;25564;53.312;9.790;2023-05-02T10:03:26;101593.97;;;12.16;64.02
39891;BME280;25564;53.312;9.790;2023-05-02T10:05:58;101599.88;;;12.45;63.33
39891;BME280;25564;53.312;9.790;2023-05-02T10:08:32;101599.66;;;12.62;63.26
39891;BME280;25564;53.312;9.790;2023-05-02T10:11:06;101603.94;;;12.75;63.15
39891;BME280;25564;53.312;9.790;2023-05-02T10:13:39;101600.25;;;12.85;62.92
39891;BME280;25564;53.312;9.790;2023-05-02T10:16:15;101608.03;;;13.03;62.58
39891;BME280;25564;53.312;9.790;2023-05-02T10:19:02;101609.81;;;13.01;61.04
39891;BME280;25564;53.312;9.790;2023-05-02T10:21:35;101607.28;;;12.91;60.96
39891;BME280;25564;53.312;9.790;2023-05-02T10:24:07;101615.84;;;13.19;60.84
39891;BME280;25564;53.312;9.790;2023-05-02T10:26:39;101615.25;;;13.57;60.70
39891;BME280;25564;53.312;9.790;2023-05-02T10:29:10;101615.97;;;13.66;60.10
39891;BME280;25564;53.312;9.790;2023-05-02T10:31:43;101615.31;;;13.52;59.36
39891;BME280;25564;53.312;9.790;2023-05-02T10:34:17;101603.97;;;13.41;59.79
39891;BME280;25564;53.312;9.790;2023-05-02T10:36:49;101597.72;;;13.42;59.73
39891;BME280;25564;53.312;9.790;2023-05-02T10:39:20;101621.84;;;13.34;57.68
39891;BME280;25564;53.312;9.790;2023-05-02T10:41:55;101614.97;;;13.15;57.59
39891;BME280;25564;53.312;9.790;2023-05-02T10:44:34;101598.25;;;13.02;57.92
39891;BME280;25564;53.312;9.790;2023-05-02T10:47:22;101631.91;;;13.11;57.05
39891;BME280;25564;53.312;9.790;2023-05-02T10:50:01;101624.69;;;13.21;58.26
39891;BME280;25564;53.312;9.790;2023-05-02T10:52:37;101630.38;;;13.56;57.55
39891;BME280;25564;53.312;9.790;2023-05-02T10:55:21;101636.97;;;13.88;57.48
39891;BME280;25564;53.312;9.790;2023-05-02T11:00:29;101625.44;;;13.32;57.15
39891;BME280;25564;53.312;9.790;2023-05-02T11:03:01;101646.13;;;13.10;56.56
39891;BME280;25564;53.312;9.790;2023-05-02T11:06:05;101648.84;;;13.05;56.04
39891;BME280;25564;53.312;9.790;2023-05-02T11:08:37;101658.69;;;13.00;57.20
39891;BME280;25564;53.312;9.790;2023-05-02T11:11:40;101652.50;;;12.98;57.16
39891;BME280;25564;53.312;9.790;2023-05-02T11:24:49;101656.25;;;12.82;57.89
39891;BME280;25564;53.312;9.790;2023-05-02T11:30:06;101666.34;;;12.53;57.97
39891;BME280;25564;53.312;9.790;2023-05-02T11:35:22;101673.09;;;12.84;59.16
39891;BME280;25564;53.312;9.790;2023-05-02T11:37:59;101678.41;;;12.84;57.58
39891;BME280;25564;53.312;9.790;2023-05-02T11:40:31;101636.75;;;12.77;58.30
39891;BME280;25564;53.312;9.790;2023-05-02T11:43:16;101680.56;;;13.30;57.56
39891;BME280;25564;53.312;9.790;2023-05-02T11:45:48;101686.25;;;13.64;57.95
39891;BME280;25564;53.312;9.790;2023-05-02T11:48:21;101667.44;;;13.74;57.94
39891;BME280;25564;53.312;9.790;2023-05-02T11:50:57;101689.97;;;14.12;57.99
39891;BME280;25564;53.312;9.790;2023-05-02T11:53:29;101691.53;;;14.25;57.43
39891;BME280;25564;53.312;9.790;2023-05-02T11:56:02;101688.06;;;14.19;57.18
39891;BME280;25564;53.312;9.790;2023-05-02T11:58:34;101695.34;;;14.09;57.37
39891;BME280;25564;53.312;9.790;2023-05-02T12:01:13;101692.06;;;13.92;56.23
39891;BME280;25564;53.312;9.790;2023-05-02T12:03:46;101687.09;;;13.67;57.20
39891;BME280;25564;53.312;9.790;2023-05-02T12:06:18;101690.00;;;13.52;57.44
39891;BME280;25564;53.312;9.790;2023-05-02T12:08:50;101711.53;;;13.38;57.30
39891;BME280;25564;53.312;9.790;2023-05-02T12:11:36;101705.56;;;13.20;57.54
39891;BME280;25564;53.312;9.790;2023-05-02T12:14:08;101725.25;;;13.03;57.85
39891;BME280;25564;53.312;9.790;2023-05-02T12:16:40;101714.03;;;12.75;56.94
39891;BME280;25564;53.312;9.790;2023-05-02T12:19:12;101732.13;;;12.43;56.90
39891;BME280;25564;53.312;9.790;2023-05-02T12:21:44;101715.38;;;12.30;57.79
39891;BME280;25564;53.312;9.790;2023-05-02T12:24:15;101713.53;;;12.38;57.65
39891;BME280;25564;53.312;9.790;2023-05-02T12:26:47;101721.38;;;12.51;57.13
39891;BME280;25564;53.312;9.790;2023-05-02T12:29:21;101726.41;;;12.80;57.22
39891;BME280;25564;53.312;9.790;2023-05-02T12:31:52;101714.53;;;13.09;56.46
39891;BME280;25564;53.312;9.790;2023-05-02T12:34:31;101704.38;;;13.42;55.86
39891;BME280;25564;53.312;9.790;2023-05-02T12:37:03;101720.00;;;13.66;55.88
39891;BME280;25564;53.312;9.790;2023-05-02T12:39:36;101694.38;;;13.56;55.53
39891;BME280;25564;53.312;9.790;2023-05-02T12:42:12;101700.81;;;13.43;54.96
39891;BME280;25564;53.312;9.790;2023-05-02T12:44:45;101732.63;;;13.55;55.64
39891;BME280;25564;53.312;9.790;2023-05-02T12:47:17;101722.19;;;13.40;55.47
39891;BME280;25564;53.312;9.790;2023-05-02T12:49:51;101737.31;;;13.38;55.70
39891;BME280;25564;53.312;9.790;2023-05-02T12:52:51;101748.06;;;13.30;54.41
39891;BME280;25564;53.312;9.790;2023-05-02T12:55:30;101741.97;;;13.21;55.28
39891;BME280;25564;53.312;9.790;2023-05-02T12:58:07;101742.88;;;13.20;55.98
39891;BME280;25564;53.312;9.790;2023-05-02T13:00:40;101742.94;;;13.10;55.80
39891;BME280;25564;53.312;9.790;2023-05-02T13:03:13;101758.91;;;13.14;55.90
39891;BME280;25564;53.312;9.790;2023-05-02T13:05:44;101743.06;;;13.00;55.77
39891;BME280;25564;53.312;9.790;2023-05-02T13:08:16;101758.28;;;12.90;55.06
39891;BME280;25564;53.312;9.790;2023-05-02T13:10:47;101762.94;;;12.65;54.66
39891;BME280;25564;53.312;9.790;2023-05-02T13:13:18;101757.84;;;12.46;55.46
39891;BME280;25564;53.312;9.790;2023-05-02T13:15:50;101754.41;;;12.31;55.76
39891;BME280;25564;53.312;9.790;2023-05-02T13:18:21;101765.00;;;12.36;56.02
39891;BME280;25564;53.312;9.790;2023-05-02T13:20:53;101776.50;;;12.41;56.04
39891;BME280;25564;53.312;9.790;2023-05-02T13:23:24;101778.19;;;12.48;55.67
39891;BME280;25564;53.312;9.790;2023-05-02T13:25:56;101773.72;;;12.52;55.72
39891;BME280;25564;53.312;9.790;2023-05-02T13:28:27;101773.63;;;12.64;56.15
39891;BME280;25564;53.312;9.790;2023-05-02T13:31:03;101778.75;;;12.84;55.97
39891;BME280;25564;53.312;9.790;2023-05-02T13:33:34;101783.88;;;13.03;56.10
39891;BME280;25564;53.312;9.790;2023-05-02T13:36:06;101780.25;;;13.10;55.76
39891;BME280;25564;53.312;9.790;2023-05-02T13:38:37;101794.44;;;13.13;55.59
39891;BME280;25564;53.312;9.790;2023-05-02T13:41:09;101793.53;;;13.15;55.60
39891;BME280;25564;53.312;9.790;2023-05-02T13:43:41;101789.16;;;13.09;55.46
39891;BME280;25564;53.312;9.790;2023-05-02T13:46:12;101793.69;;;13.00;55.64
39891;BME280;25564;53.312;9.790;2023-05-02T13:48:43;101792.28;;;12.61;55.57
39891;BME280;25564;53.312;9.790;2023-05-02T13:51:15;101788.19;;;12.20;54.94
39891;BME280;25564;53.312;9.790;2023-05-02T13:53:47;101790.16;;;11.89;55.57
39891;BME280;25564;53.312;9.790;2023-05-02T13:56:19;101797.25;;;11.93;55.74
39891;BME280;25564;53.312;9.790;2023-05-02T13:58:51;101798.09;;;11.97;55.25